Time;durP1;ratioP1;P1;durP2;ratioP2;P2;SDS_P1;SDS_P2;PMS_P1;PMS_P2;Temp;Humidity;BMP_temperature;BMP_pressure;BME280_temperature;BME280_humidity;BME280_pressure;Samples;Min_cycle;Max_cycle;Signal;HPM_P1;HPM_P2
2021/12/10 00:00:41;;;;;;;1.33;1.23;;;1.20;99.90;;;;;;5024456;28;20951;-86
2021/12/10 00:03:12;;;;;;;1.30;1.20;;;1.30;99.90;;;;;;5027570;28;20438;-87
2021/12/10 00:05:53;;;;;;;0.80;0.80;;;1.20;99.90;;;;;;5028057;28;20559;-87
2021/12/10 00:08:20;;;;;;;1.47;1.37;;;1.30;99.90;;;;;;5011205;28;20434;-85
2021/12/10 00:10:50;;;;;;;2.37;1.40;;;1.30;99.90;;;;;;5005220;28;20782;-85
2021/12/10 00:13:17;;;;;;;1.17;1.07;;;1.30;99.90;;;;;;5019047;28;20530;-87
2021/12/10 00:15:43;;;;;;;0.80;0.80;;;1.30;99.90;;;;;;5010950;28;20481;-88
2021/12/10 00:18:11;;;;;;;1.67;1.57;;;1.30;99.90;;;;;;5018143;28;20430;-87
2021/12/10 00:20:38;;;;;;;0.90;0.90;;;1.30;99.90;;;;;;5029525;28;20438;-86
2021/12/10 00:23:09;;;;;;;3.53;2.40;;;1.30;99.90;;;;;;5027304;28;20453;-86
2021/12/10 00:25:39;;;;;;;4.10;2.23;;;1.30;99.90;;;;;;5021740;28;20491;-86
2021/12/10 00:28:18;;;;;;;1.30;1.20;;;1.30;99.90;;;;;;5022139;28;20427;-87
2021/12/10 00:31:31;;;;;;;1.53;1.43;;;1.30;99.90;;;;;;5027461;28;20441;-86
2021/12/10 00:33:57;;;;;;;1.43;1.37;;;1.30;99.90;;;;;;5019740;28;20926;-86
2021/12/10 00:36:22;;;;;;;9.80;3.30;;;1.30;99.90;;;;;;5029847;28;20422;-86
2021/12/10 00:38:50;;;;;;;3.03;2.83;;;1.30;99.90;;;;;;5004868;28;20749;-86
2021/12/10 00:41:17;;;;;;;2.70;2.50;;;1.40;99.90;;;;;;5004319;28;20187;-87
2021/12/10 00:43:43;;;;;;;2.40;2.20;;;1.30;99.90;;;;;;5031927;28;20565;-87
2021/12/10 00:46:09;;;;;;;0.90;0.90;;;1.30;99.90;;;;;;5013695;28;20517;-87
2021/12/10 00:48:34;;;;;;;6.07;3.47;;;1.30;99.90;;;;;;5014813;28;20190;-86
2021/12/10 00:51:02;;;;;;;1.77;1.63;;;1.30;99.90;;;;;;5014464;28;20183;-87
2021/12/10 00:53:28;;;;;;;2.70;2.50;;;1.30;99.90;;;;;;5030799;28;20249;-86
2021/12/10 00:55:54;;;;;;;0.87;0.87;;;1.30;99.90;;;;;;5018790;28;20989;-86
2021/12/10 00:58:21;;;;;;;0.80;0.80;;;1.40;99.90;;;;;;5021793;28;20530;-86
2021/12/10 01:00:51;;;;;;;2.50;2.30;;;1.30;99.90;;;;;;5014715;28;20512;-86
2021/12/10 01:03:19;;;;;;;2.33;2.23;;;1.40;99.90;;;;;;5014267;28;20480;-86
2021/12/10 01:05:48;;;;;;;0.90;0.90;;;1.40;99.90;;;;;;5022702;28;20473;-86
2021/12/10 01:08:14;;;;;;;0.80;0.80;;;1.40;99.90;;;;;;5031853;28;20445;-87
2021/12/10 01:10:50;;;;;;;1.00;0.97;;;1.40;99.90;;;;;;5031292;28;20430;-87
2021/12/10 01:13:19;;;;;;;2.30;2.20;;;1.40;99.90;;;;;;5010253;28;20512;-87
2021/12/10 01:24:18;;;;;;;0.80;0.80;;;1.50;99.90;;;;;;5031274;28;20442;-85
2021/12/10 01:29:16;;;;;;;1.20;1.10;;;1.40;99.90;;;;;;5029239;28;20961;-87
2021/12/10 01:31:42;;;;;;;0.93;0.90;;;1.50;99.90;;;;;;5026080;28;20434;-87
2021/12/10 01:34:09;;;;;;;0.80;0.80;;;1.50;99.90;;;;;;5031669;28;20465;-86
2021/12/10 01:36:35;;;;;;;1.23;1.13;;;1.50;99.90;;;;;;5039298;28;21076;-86
2021/12/10 01:39:06;;;;;;;1.63;1.57;;;1.50;99.90;;;;;;5025641;28;20430;-86
2021/12/10 01:41:36;;;;;;;1.10;1.00;;;1.50;99.90;;;;;;5013888;28;20465;-86
2021/12/10 01:44:13;;;;;;;2.17;2.07;;;1.50;99.90;;;;;;5030191;28;20446;-86
2021/12/10 01:46:40;;;;;;;1.27;1.17;;;1.50;99.90;;;;;;5031387;28;20445;-86
2021/12/10 01:49:09;;;;;;;1.00;1.00;;;1.50;99.90;;;;;;5028559;28;20539;-87
2021/12/10 01:51:37;;;;;;;2.77;1.73;;;1.50;99.90;;;;;;5021398;28;20489;-87
2021/12/10 01:54:08;;;;;;;1.30;1.20;;;1.50;99.90;;;;;;5013582;28;20468;-86
2021/12/10 01:56:35;;;;;;;3.70;3.40;;;1.50;99.90;;;;;;5031645;28;20430;-86
2021/12/10 01:59:03;;;;;;;1.50;1.40;;;1.50;99.90;;;;;;5009011;28;20542;-87
2021/12/10 02:01:38;;;;;;;1.00;0.90;;;1.50;99.90;;;;;;5024421;28;20442;-87
2021/12/10 02:04:07;;;;;;;1.20;1.10;;;1.50;99.90;;;;;;5012884;28;20456;-86
2021/12/10 02:06:34;;;;;;;1.10;1.00;;;1.50;99.90;;;;;;5031449;28;20537;-86
2021/12/10 02:08:59;;;;;;;1.03;0.93;;;1.50;99.90;;;;;;5030793;28;20817;-86
2021/12/10 02:11:25;;;;;;;1.47;1.37;;;1.50;99.90;;;;;;5029396;28;20525;-86
2021/12/10 02:13:50;;;;;;;1.30;1.20;;;1.60;99.90;;;;;;5031290;28;20187;-85
2021/12/10 02:16:17;;;;;;;1.10;1.00;;;1.50;99.90;;;;;;5026138;28;20270;-86
2021/12/10 02:18:43;;;;;;;1.40;1.30;;;1.50;99.90;;;;;;5006820;28;20179;-86
2021/12/10 02:21:09;;;;;;;0.90;0.90;;;1.50;99.90;;;;;;5030008;28;20438;-87
2021/12/10 02:23:38;;;;;;;2.30;2.20;;;1.50;99.90;;;;;;5009464;28;20188;-86
2021/12/10 02:26:07;;;;;;;3.13;1.47;;;1.50;99.90;;;;;;5019378;28;20734;-86
2021/12/10 02:28:33;;;;;;;1.23;1.13;;;1.50;99.90;;;;;;5000180;28;20495;-87
2021/12/10 02:30:59;;;;;;;1.77;1.67;;;1.50;99.90;;;;;;5029439;28;20949;-86
2021/12/10 02:33:27;;;;;;;6.57;2.57;;;1.50;99.90;;;;;;5030428;28;20448;-86
2021/12/10 02:35:53;;;;;;;0.80;0.80;;;1.50;99.90;;;;;;5013044;28;20572;-87
2021/12/10 02:38:20;;;;;;;0.80;0.80;;;1.50;99.90;;;;;;5012765;28;20521;-86
2021/12/10 02:40:48;;;;;;;0.80;0.80;;;1.50;99.90;;;;;;5006335;28;20447;-86
2021/12/10 02:43:15;;;;;;;0.80;0.70;;;1.50;99.90;;;;;;5028957;28;20491;-85
2021/12/10 02:45:43;;;;;;;3.70;3.50;;;1.50;99.90;;;;;;5028764;28;20434;-86
2021/12/10 02:48:09;;;;;;;3.73;3.53;;;1.50;99.90;;;;;;5005208;28;20802;-86
2021/12/10 02:50:36;;;;;;;3.80;1.67;;;1.50;99.90;;;;;;5022602;28;20527;-86
2021/12/10 02:53:03;;;;;;;2.13;1.73;;;1.50;99.90;;;;;;5030310;28;20413;-85
2021/12/10 02:55:30;;;;;;;4.93;2.03;;;1.50;99.90;;;;;;5021015;28;20488;-87
2021/12/10 02:57:58;;;;;;;1.13;1.03;;;1.50;99.90;;;;;;5025708;28;20938;-86
2021/12/10 03:00:31;;;;;;;0.80;0.80;;;1.50;99.90;;;;;;5020520;28;20813;-86
2021/12/10 03:02:57;;;;;;;0.83;0.80;;;1.50;99.90;;;;;;5029102;28;20935;-86
2021/12/10 03:05:23;;;;;;;5.60;2.60;;;1.50;99.90;;;;;;5009173;28;20433;-86
2021/12/10 03:07:50;;;;;;;1.47;1.27;;;1.50;99.90;;;;;;5028440;28;20430;-87
2021/12/10 03:10:21;;;;;;;1.13;1.03;;;1.50;99.90;;;;;;5030098;28;20435;-87
2021/12/10 03:12:47;;;;;;;0.90;0.90;;;1.60;99.90;;;;;;5028215;28;20445;-87
2021/12/10 03:15:14;;;;;;;0.80;0.80;;;1.50;99.90;;;;;;5008124;28;20486;-86
2021/12/10 03:17:42;;;;;;;0.93;0.90;;;1.60;99.90;;;;;;5026523;28;20229;-87
2021/12/10 03:20:10;;;;;;;0.87;0.87;;;1.60;99.90;;;;;;5008505;28;20434;-87
2021/12/10 03:22:37;;;;;;;0.97;0.90;;;1.60;99.90;;;;;;5030090;28;20425;-86
2021/12/10 03:25:06;;;;;;;2.30;2.20;;;1.60;99.90;;;;;;5028978;28;20476;-86
2021/12/10 03:27:32;;;;;;;0.90;0.90;;;1.60;99.90;;;;;;5017349;28;20476;-87
2021/12/10 03:29:58;;;;;;;0.80;0.80;;;1.50;99.90;;;;;;5011898;28;20442;-87
2021/12/10 03:32:28;;;;;;;2.17;2.07;;;1.50;99.90;;;;;;5019158;28;20189;-87
2021/12/10 03:34:55;;;;;;;0.90;0.90;;;1.50;99.90;;;;;;5007893;28;20222;-87
2021/12/10 03:37:20;;;;;;;1.40;1.30;;;1.50;99.90;;;;;;5020088;28;20418;-86
2021/12/10 03:39:49;;;;;;;2.33;2.23;;;1.50;99.90;;;;;;5005807;28;20500;-86
2021/12/10 03:42:16;;;;;;;1.27;1.17;;;1.40;99.90;;;;;;5011510;28;20183;-87
2021/12/10 03:44:42;;;;;;;2.20;2.10;;;1.50;99.90;;;;;;5028637;28;20535;-86
2021/12/10 03:47:09;;;;;;;2.63;2.43;;;1.40;99.90;;;;;;5019836;28;20431;-86
2021/12/10 03:49:36;;;;;;;1.90;1.80;;;1.40;99.90;;;;;;5011503;28;20945;-87
2021/12/10 03:52:03;;;;;;;1.73;1.63;;;1.50;99.90;;;;;;5027264;28;20431;-87
2021/12/10 03:54:29;;;;;;;1.10;1.00;;;1.40;99.90;;;;;;5029371;28;20482;-87
2021/12/10 03:56:56;;;;;;;1.63;1.53;;;1.40;99.90;;;;;;5029037;28;20442;-87
2021/12/10 03:59:23;;;;;;;1.77;1.60;;;1.40;99.90;;;;;;5011619;28;20466;-86
2021/12/10 04:01:52;;;;;;;3.63;1.37;;;1.40;99.90;;;;;;5024638;28;20530;-86
2021/12/10 04:04:26;;;;;;;1.67;1.30;;;1.40;99.90;;;;;;5010159;28;20439;-87
2021/12/10 04:06:52;;;;;;;2.10;2.00;;;1.40;99.90;;;;;;5020507;28;20450;-88
2021/12/10 04:09:18;;;;;;;1.20;1.10;;;1.40;99.90;;;;;;5023186;28;20434;-88
2021/12/10 04:11:44;;;;;;;1.23;1.13;;;1.40;99.90;;;;;;5026822;28;20995;-87
2021/12/10 04:14:10;;;;;;;2.43;2.10;;;1.40;99.90;;;;;;5029588;28;20215;-87
2021/12/10 04:16:36;;;;;;;2.37;2.23;;;1.40;99.90;;;;;;5028290;28;20564;-87
2021/12/10 04:19:06;;;;;;;2.07;1.97;;;1.40;99.90;;;;;;5011511;28;20512;-87
2021/12/10 04:21:38;;;;;;;6.53;2.80;;;1.40;99.90;;;;;;5022701;28;20470;-87
2021/12/10 04:24:04;;;;;;;1.10;1.00;;;1.40;99.90;;;;;;5012222;28;20906;-87
2021/12/10 04:26:30;;;;;;;1.67;1.57;;;1.50;99.90;;;;;;5036038;28;20533;-87
2021/12/10 04:28:56;;;;;;;2.10;2.00;;;1.40;99.90;;;;;;5028547;28;20832;-88
2021/12/10 04:31:21;;;;;;;1.40;1.30;;;1.40;99.90;;;;;;5006833;28;20286;-88
2021/12/10 04:33:47;;;;;;;1.43;1.33;;;1.40;99.90;;;;;;5010547;28;20468;-87
2021/12/10 04:36:12;;;;;;;1.33;1.23;;;1.40;99.90;;;;;;5029486;28;20306;-87
2021/12/10 04:38:39;;;;;;;1.00;0.97;;;1.40;99.90;;;;;;5029319;28;20618;-86
2021/12/10 04:41:08;;;;;;;1.40;1.30;;;1.50;99.90;;;;;;5011638;28;20270;-88
2021/12/10 04:43:37;;;;;;;0.90;0.87;;;1.40;99.90;;;;;;5011188;28;20492;-88
2021/12/10 04:46:03;;;;;;;0.83;0.83;;;1.50;99.90;;;;;;5027001;28;20434;-88
2021/12/10 04:48:41;;;;;;;0.97;0.90;;;1.40;99.90;;;;;;5010369;28;20488;-88
2021/12/10 04:51:06;;;;;;;1.00;0.90;;;1.50;99.90;;;;;;5006544;28;20439;-88
2021/12/10 04:53:32;;;;;;;0.80;0.80;;;1.50;99.90;;;;;;5026091;28;20587;-87
2021/12/10 04:55:58;;;;;;;0.80;0.80;;;1.50;99.90;;;;;;5026973;28;20231;-88
2021/12/10 04:58:24;;;;;;;1.57;1.47;;;1.50;99.90;;;;;;5028631;28;20599;-88
2021/12/10 05:00:50;;;;;;;1.20;1.10;;;1.50;99.90;;;;;;5004433;28;20660;-88
2021/12/10 05:03:17;;;;;;;0.97;0.90;;;1.50;99.90;;;;;;5018993;28;20524;-88
2021/12/10 05:05:44;;;;;;;4.80;4.50;;;1.50;99.90;;;;;;5027305;28;20453;-87
2021/12/10 05:08:10;;;;;;;1.10;1.03;;;1.50;99.90;;;;;;5028684;28;20968;-88
2021/12/10 05:10:37;;;;;;;2.30;1.83;;;1.50;99.90;;;;;;5025227;28;21002;-88
2021/12/10 05:13:03;;;;;;;4.80;1.57;;;1.50;99.90;;;;;;5026703;28;20442;-88
2021/12/10 05:15:31;;;;;;;1.07;0.97;;;1.50;99.90;;;;;;5026853;28;20513;-87
2021/12/10 05:17:57;;;;;;;1.93;1.37;;;1.50;99.90;;;;;;5028322;28;20477;-88
2021/12/10 05:20:34;;;;;;;3.23;2.60;;;1.50;99.90;;;;;;5021722;28;20964;-88
2021/12/10 05:22:59;;;;;;;2.50;1.00;;;1.50;99.90;;;;;;5013829;28;20451;-88
2021/12/10 05:25:27;;;;;;;2.07;1.97;;;1.50;99.90;;;;;;5014542;28;20942;-88
2021/12/10 05:27:53;;;;;;;1.93;1.83;;;1.50;99.90;;;;;;5031896;28;20564;-87
2021/12/10 05:30:22;;;;;;;0.80;0.80;;;1.50;99.90;;;;;;5029303;28;20453;-87
2021/12/10 05:32:48;;;;;;;0.80;0.80;;;1.50;99.90;;;;;;5042962;28;20523;-87
2021/12/10 05:35:14;;;;;;;1.70;1.60;;;1.50;99.90;;;;;;5025708;28;20975;-87
2021/12/10 05:37:40;;;;;;;1.63;1.53;;;1.50;99.90;;;;;;5031165;28;20187;-89
2021/12/10 05:40:10;;;;;;;3.00;2.40;;;1.50;99.90;;;;;;5014308;28;20790;-88
2021/12/10 05:42:36;;;;;;;1.23;1.17;;;1.50;99.90;;;;;;5032057;28;20451;-88
2021/12/10 05:45:03;;;;;;;1.70;1.60;;;1.50;99.90;;;;;;5008804;28;20466;-88
2021/12/10 05:47:29;;;;;;;1.30;1.20;;;1.60;99.90;;;;;;5033043;28;20948;-88
2021/12/10 05:49:55;;;;;;;1.60;1.50;;;1.50;99.90;;;;;;5030665;28;20430;-87
2021/12/10 05:52:20;;;;;;;0.80;0.80;;;1.50;99.90;;;;;;5006053;28;20179;-88
2021/12/10 05:54:46;;;;;;;2.63;1.60;;;1.50;99.90;;;;;;5014084;28;20780;-87
2021/12/10 05:57:12;;;;;;;0.80;0.80;;;1.50;99.90;;;;;;5028128;28;20902;-88
2021/12/10 05:59:37;;;;;;;2.33;2.20;;;1.50;99.90;;;;;;5036060;28;20652;-88
2021/12/10 06:02:03;;;;;;;1.80;1.33;;;1.50;99.90;;;;;;5004144;28;20454;-86
2021/12/10 06:04:30;;;;;;;3.83;3.00;;;1.50;99.90;;;;;;5027517;28;20184;-88
2021/12/10 06:06:56;;;;;;;1.07;0.97;;;1.50;99.90;;;;;;5028909;28;20437;-88
2021/12/10 06:09:23;;;;;;;4.20;3.63;;;1.50;99.90;;;;;;5030586;28;20438;-87
2021/12/10 06:11:49;;;;;;;1.57;1.43;;;1.50;99.90;;;;;;5031522;28;20438;-89
2021/12/10 06:14:14;;;;;;;1.47;1.37;;;1.50;99.90;;;;;;5028971;28;20472;-88
2021/12/10 06:16:40;;;;;;;1.17;1.07;;;1.50;99.90;;;;;;5033905;28;21010;-88
2021/12/10 06:19:06;;;;;;;4.50;3.07;;;1.50;99.90;;;;;;5020535;28;20299;-87
2021/12/10 06:21:33;;;;;;;1.07;1.00;;;1.50;99.90;;;;;;5011355;28;20195;-85
2021/12/10 06:24:00;;;;;;;1.93;1.83;;;1.50;99.90;;;;;;5024607;28;20431;-85
2021/12/10 06:26:26;;;;;;;1.00;0.90;;;1.60;99.90;;;;;;5028029;28;20470;-86
2021/12/10 06:28:52;;;;;;;3.53;3.23;;;1.50;99.90;;;;;;5029884;28;20473;-86
2021/12/10 06:31:19;;;;;;;3.10;2.90;;;1.50;99.90;;;;;;5027402;28;20211;-85
2021/12/10 06:33:45;;;;;;;2.07;1.83;;;1.50;99.90;;;;;;5028210;28;20446;-85
2021/12/10 06:36:12;;;;;;;2.70;2.50;;;1.50;99.90;;;;;;5024222;28;20536;-86
2021/12/10 06:38:38;;;;;;;1.77;1.67;;;1.50;99.90;;;;;;5027426;28;20664;-86
2021/12/10 06:41:05;;;;;;;5.13;3.07;;;1.50;99.90;;;;;;5004223;28;20453;-86
2021/12/10 06:43:30;;;;;;;0.80;0.70;;;1.50;99.90;;;;;;5026416;28;20517;-87
2021/12/10 06:45:57;;;;;;;0.80;0.70;;;1.50;99.90;;;;;;5026596;28;20882;-86
2021/12/10 06:48:25;;;;;;;9.90;4.23;;;1.50;99.90;;;;;;5028628;28;20453;-89
2021/12/10 06:50:54;;;;;;;0.80;0.80;;;1.50;99.90;;;;;;5018158;28;20518;-88
2021/12/10 06:53:23;;;;;;;1.57;1.47;;;1.40;99.90;;;;;;5024870;28;21019;-88
2021/12/10 06:55:49;;;;;;;1.67;1.57;;;1.40;99.90;;;;;;5002158;28;20486;-87
2021/12/10 06:58:16;;;;;;;3.90;2.60;;;1.40;99.90;;;;;;5003188;28;20449;-88
2021/12/10 07:00:51;;;;;;;1.73;1.53;;;1.40;99.90;;;;;;5018965;28;20473;-88
2021/12/10 07:03:21;;;;;;;1.00;0.90;;;1.40;99.90;;;;;;5027163;28;20441;-88
2021/12/10 07:05:48;;;;;;;1.00;0.90;;;1.40;99.90;;;;;;5027412;28;20442;-88
2021/12/10 07:08:15;;;;;;;0.80;0.80;;;1.40;99.90;;;;;;5024956;28;20447;-88
2021/12/10 07:10:41;;;;;;;1.50;1.40;;;1.40;99.90;;;;;;5025107;28;20918;-88
2021/12/10 07:13:07;;;;;;;1.17;1.10;;;1.40;99.90;;;;;;5030888;28;20438;-89
2021/12/10 07:15:37;;;;;;;2.90;2.80;;;1.40;99.90;;;;;;5026396;28;20516;-89
2021/12/10 07:18:03;;;;;;;1.20;1.10;;;1.40;99.90;;;;;;5029418;28;20442;-88
2021/12/10 07:20:29;;;;;;;3.27;3.10;;;1.40;99.90;;;;;;5030117;28;20450;-88
2021/12/10 07:22:54;;;;;;;2.77;1.30;;;1.40;99.90;;;;;;5023916;28;20443;-88
2021/12/10 07:25:20;;;;;;;3.47;3.13;;;1.40;99.90;;;;;;5012079;28;20644;-89
2021/12/10 07:27:48;;;;;;;4.10;1.80;;;1.40;99.90;;;;;;5029478;28;20191;-88
2021/12/10 07:30:16;;;;;;;1.83;1.20;;;1.40;99.90;;;;;;5012341;28;20438;-88
2021/12/10 07:32:41;;;;;;;5.53;4.50;;;1.40;99.90;;;;;;5010359;28;20434;-87
2021/12/10 07:35:08;;;;;;;1.00;0.90;;;1.50;99.90;;;;;;5009750;28;20493;-87
2021/12/10 07:37:35;;;;;;;1.97;1.53;;;1.50;99.90;;;;;;5030499;28;20700;-86
2021/12/10 07:40:01;;;;;;;1.73;1.33;;;1.50;99.90;;;;;;5022148;28;20498;-87
2021/12/10 07:42:27;;;;;;;2.43;2.23;;;1.50;99.90;;;;;;5026656;28;20893;-85
2021/12/10 07:44:55;;;;;;;4.07;2.20;;;1.50;99.90;;;;;;5024003;28;21119;-84
2021/12/10 07:47:21;;;;;;;0.80;0.80;;;1.50;99.90;;;;;;5030348;28;20569;-85
2021/12/10 07:49:47;;;;;;;0.90;0.90;;;1.50;99.90;;;;;;5021975;28;20454;-84
2021/12/10 07:52:18;;;;;;;1.53;1.43;;;1.50;99.90;;;;;;5020051;28;20196;-84
2021/12/10 07:54:46;;;;;;;1.67;1.57;;;1.50;99.90;;;;;;5023784;28;20697;-84
2021/12/10 07:57:12;;;;;;;1.93;1.80;;;1.50;99.90;;;;;;5006883;28;21073;-84
2021/12/10 07:59:38;;;;;;;1.50;1.40;;;1.50;99.90;;;;;;5024355;28;21292;-84
2021/12/10 08:02:04;;;;;;;0.80;0.80;;;1.50;99.90;;;;;;5024671;28;20450;-85
2021/12/10 08:04:30;;;;;;;8.83;3.30;;;1.50;99.90;;;;;;5026458;28;20430;-86
2021/12/10 08:06:55;;;;;;;0.80;0.70;;;1.50;99.90;;;;;;5025645;28;20504;-86
2021/12/10 08:09:21;;;;;;;0.90;0.90;;;1.50;99.90;;;;;;5027355;28;20226;-86
2021/12/10 08:11:47;;;;;;;0.80;0.80;;;1.50;99.90;;;;;;5020417;28;20199;-85
2021/12/10 08:14:13;;;;;;;1.70;1.60;;;1.50;99.90;;;;;;5024676;28;20187;-86
2021/12/10 08:16:39;;;;;;;0.80;0.80;;;1.50;99.90;;;;;;5026305;28;20446;-86
2021/12/10 08:19:05;;;;;;;1.20;1.10;;;1.50;99.90;;;;;;5015396;28;20525;-88
2021/12/10 08:21:31;;;;;;;1.17;1.07;;;1.50;99.90;;;;;;5028270;28;21059;-89
2021/12/10 08:23:57;;;;;;;0.90;0.90;;;1.50;99.90;;;;;;5028981;28;20434;-88
2021/12/10 08:26:23;;;;;;;1.23;1.13;;;1.50;99.90;;;;;;5028837;28;20441;-88
2021/12/10 08:28:49;;;;;;;1.57;1.47;;;1.50;99.90;;;;;;5029052;28;20214;-88
2021/12/10 08:31:16;;;;;;;3.70;3.47;;;1.60;99.90;;;;;;5009483;28;20659;-89
2021/12/10 08:33:45;;;;;;;1.07;1.00;;;1.60;99.90;;;;;;5028148;28;20422;-88
2021/12/10 08:36:11;;;;;;;0.97;0.97;;;1.50;99.90;;;;;;5022675;28;21056;-88
2021/12/10 08:38:37;;;;;;;3.83;1.67;;;1.60;99.90;;;;;;5025048;28;20446;-88
2021/12/10 08:41:08;;;;;;;1.20;1.13;;;1.60;99.90;;;;;;5000960;28;20938;-87
2021/12/10 08:43:35;;;;;;;3.07;2.60;;;1.60;99.90;;;;;;5021808;28;20445;-87
2021/12/10 08:46:02;;;;;;;4.50;4.30;;;1.70;99.90;;;;;;5009498;28;20837;-88
2021/12/10 08:48:29;;;;;;;1.47;1.40;;;1.70;99.90;;;;;;5026326;28;20445;-87
2021/12/10 08:50:59;;;;;;;1.40;1.30;;;1.60;99.90;;;;;;5027903;28;20438;-87
2021/12/10 08:53:25;;;;;;;5.33;2.70;;;1.70;99.90;;;;;;5028444;28;20465;-88
2021/12/10 08:55:53;;;;;;;0.80;0.70;;;1.70;99.90;;;;;;5010434;28;20489;-87
2021/12/10 08:58:20;;;;;;;2.90;1.50;;;1.70;99.90;;;;;;5030422;28;20186;-87
2021/12/10 09:00:50;;;;;;;1.40;1.30;;;1.70;99.90;;;;;;5012479;28;20918;-87
2021/12/10 09:03:16;;;;;;;1.80;1.70;;;1.70;99.90;;;;;;5031816;28;20892;-86
2021/12/10 09:05:42;;;;;;;2.27;2.03;;;1.70;99.90;;;;;;5018859;28;20522;-87
2021/12/10 09:08:07;;;;;;;1.97;1.87;;;1.60;99.90;;;;;;5028325;28;20525;-85
2021/12/10 09:10:37;;;;;;;8.17;2.23;;;1.60;99.90;;;;;;5031611;28;20221;-88
2021/12/10 09:13:10;;;;;;;1.33;1.23;;;1.70;99.90;;;;;;5009654;28;20279;-88
2021/12/10 09:15:36;;;;;;;1.77;1.57;;;1.70;99.90;;;;;;5025776;28;20844;-88
2021/12/10 09:18:02;;;;;;;1.37;1.30;;;1.70;99.90;;;;;;5020739;28;20426;-87
2021/12/10 09:20:36;;;;;;;0.80;0.70;;;1.70;99.90;;;;;;5024125;28;20643;-87
2021/12/10 09:23:03;;;;;;;1.77;1.67;;;1.70;99.90;;;;;;5031979;28;20445;-87
2021/12/10 09:25:28;;;;;;;7.80;6.53;;;1.70;99.90;;;;;;5031856;28;20432;-88
2021/12/10 09:27:55;;;;;;;1.10;1.00;;;1.80;99.90;;;;;;5032043;28;20776;-87
2021/12/10 09:30:23;;;;;;;1.10;1.00;;;1.80;99.90;;;;;;5032078;28;21114;-88
2021/12/10 09:32:49;;;;;;;1.63;1.53;;;1.80;99.90;;;;;;5031908;28;20429;-88
2021/12/10 09:35:19;;;;;;;1.80;1.70;;;1.90;99.90;;;;;;5031683;28;20942;-86
2021/12/10 09:37:46;;;;;;;2.30;1.77;;;1.90;99.90;;;;;;5023080;28;20477;-85
2021/12/10 09:40:17;;;;;;;0.90;0.90;;;1.90;99.90;;;;;;5031563;28;20446;-86
2021/12/10 09:42:43;;;;;;;0.80;0.80;;;1.90;99.90;;;;;;5038764;28;20501;-88
2021/12/10 09:45:13;;;;;;;1.43;1.33;;;1.90;99.90;;;;;;5038052;28;20500;-88
2021/12/10 09:47:40;;;;;;;2.93;2.73;;;2.00;99.90;;;;;;5039018;28;20536;-88
2021/12/10 09:50:07;;;;;;;1.53;1.43;;;2.00;99.90;;;;;;5028751;28;20422;-89
2021/12/10 09:52:33;;;;;;;3.47;2.50;;;2.00;99.90;;;;;;5023856;28;20456;-88
2021/12/10 09:54:59;;;;;;;1.50;1.40;;;2.10;99.90;;;;;;5027848;28;20916;-85
2021/12/10 09:57:31;;;;;;;1.10;1.00;;;2.10;99.90;;;;;;5005340;28;20184;-86
2021/12/10 10:00:00;;;;;;;2.07;1.97;;;2.20;99.90;;;;;;5002959;28;20184;-86
2021/12/10 10:02:29;;;;;;;0.80;0.80;;;2.20;99.90;;;;;;5030608;28;20485;-86
2021/12/10 10:04:55;;;;;;;1.00;0.90;;;2.20;99.90;;;;;;5031307;28;20871;-87
2021/12/10 10:07:26;;;;;;;3.73;2.73;;;2.20;99.90;;;;;;5013099;28;20483;-86
2021/12/10 10:09:56;;;;;;;2.10;2.00;;;2.20;99.90;;;;;;5013359;28;20226;-86
2021/12/10 10:12:31;;;;;;;0.90;0.80;;;2.20;99.90;;;;;;5026996;28;20525;-84
2021/12/10 10:15:03;;;;;;;2.13;2.03;;;2.30;99.90;;;;;;5017856;28;20821;-83
2021/12/10 10:17:28;;;;;;;1.07;1.00;;;2.30;99.90;;;;;;5020496;28;20503;-85
2021/12/10 10:19:54;;;;;;;1.40;1.30;;;2.30;99.90;;;;;;5029462;28;20442;-84
2021/12/10 10:22:25;;;;;;;1.53;1.47;;;2.40;99.90;;;;;;5026666;28;20187;-85
2021/12/10 10:24:52;;;;;;;1.40;1.30;;;2.40;99.90;;;;;;5027237;28;20454;-84
2021/12/10 10:27:25;;;;;;;1.77;1.67;;;2.50;99.90;;;;;;5030461;28;20549;-85
2021/12/10 10:29:56;;;;;;;1.07;1.00;;;2.50;99.90;;;;;;5025524;28;20796;-85
2021/12/10 10:32:27;;;;;;;2.50;2.30;;;2.50;99.90;;;;;;5031427;28;20470;-91
2021/12/10 10:34:58;;;;;;;1.00;0.90;;;2.60;99.90;;;;;;5023568;28;20485;-90
2021/12/10 10:37:24;;;;;;;4.90;3.30;;;2.60;99.90;;;;;;5011891;28;20792;-89
2021/12/10 10:39:51;;;;;;;0.87;0.80;;;2.60;99.90;;;;;;5008605;28;20426;-90
2021/12/10 10:42:21;;;;;;;1.87;1.77;;;2.60;99.90;;;;;;5021850;28;20450;-90
2021/12/10 10:44:47;;;;;;;2.07;1.97;;;2.70;99.90;;;;;;5015853;28;20517;-90
2021/12/10 10:47:13;;;;;;;1.00;0.90;;;2.70;99.90;;;;;;5014415;28;20608;-91
2021/12/10 10:49:44;;;;;;;0.87;0.80;;;2.70;99.90;;;;;;5033963;28;20493;-90
2021/12/10 10:52:20;;;;;;;1.00;0.90;;;2.70;99.90;;;;;;5041293;28;20413;-92
2021/12/10 10:54:47;;;;;;;2.00;1.80;;;2.70;99.90;;;;;;4997960;28;20633;-91
2021/12/10 10:57:24;;;;;;;2.80;1.83;;;2.80;99.90;;;;;;5037556;28;20441;-90
2021/12/10 10:59:57;;;;;;;1.37;1.00;;;2.80;99.90;;;;;;5022123;28;20474;-91
2021/12/10 11:02:26;;;;;;;1.20;1.10;;;2.80;99.90;;;;;;5037514;28;20829;-91
2021/12/10 11:04:53;;;;;;;1.00;0.90;;;2.90;99.90;;;;;;5031979;28;20455;-91
2021/12/10 11:07:26;;;;;;;2.90;2.70;;;2.90;99.90;;;;;;5031809;28;20472;-91
2021/12/10 11:10:05;;;;;;;1.40;1.30;;;3.00;99.90;;;;;;5007040;28;20618;-90
2021/12/10 11:12:38;;;;;;;5.53;2.70;;;3.00;99.90;;;;;;5016519;28;20781;-90
2021/12/10 11:15:15;;;;;;;1.40;1.30;;;3.10;99.90;;;;;;5012888;28;20508;-89
2021/12/10 11:17:45;;;;;;;1.57;1.47;;;3.10;99.90;;;;;;5030168;28;20423;-89
2021/12/10 11:20:21;;;;;;;1.63;1.53;;;3.20;99.90;;;;;;5023045;28;20963;-90
2021/12/10 11:22:54;;;;;;;2.70;2.50;;;3.30;99.90;;;;;;5031628;28;20490;-89
2021/12/10 11:25:43;;;;;;;3.57;1.80;;;3.40;99.90;;;;;;5010426;28;20450;-88
2021/12/10 11:28:17;;;;;;;2.23;2.03;;;3.30;99.90;;;;;;5025674;28;20504;-87
2021/12/10 11:30:46;;;;;;;1.40;1.30;;;3.40;99.90;;;;;;5010889;28;20431;-89
2021/12/10 11:33:15;;;;;;;6.30;1.30;;;3.40;99.90;;;;;;5005338;28;20539;-89
2021/12/10 11:35:54;;;;;;;1.63;1.53;;;3.50;99.90;;;;;;5030062;28;20478;-89
2021/12/10 11:38:25;;;;;;;0.80;0.70;;;3.60;99.90;;;;;;5027249;28;20510;-91
2021/12/10 11:41:00;;;;;;;1.83;1.73;;;3.70;99.90;;;;;;5021853;28;20444;-90
2021/12/10 11:49:18;;;;;;;3.43;2.70;;;3.60;99.90;;;;;;5029830;28;20453;-88
2021/12/10 11:52:03;;;;;;;1.57;1.37;;;3.60;99.90;;;;;;5008009;28;20835;-88
2021/12/10 11:54:32;;;;;;;7.53;3.07;;;3.60;99.90;;;;;;5019409;28;20485;-88
2021/12/10 11:57:11;;;;;;;1.77;1.67;;;3.60;99.90;;;;;;5030830;28;20447;-89
2021/12/10 11:59:43;;;;;;;2.53;2.43;;;3.50;99.90;;;;;;5001740;28;20457;-90
2021/12/10 12:02:18;;;;;;;0.80;0.70;;;3.50;99.90;;;;;;5023339;28;20442;-90
2021/12/10 12:04:48;;;;;;;1.20;1.10;;;3.50;99.90;;;;;;5026768;28;20519;-89
2021/12/10 12:07:16;;;;;;;8.60;3.30;;;3.50;99.90;;;;;;5012486;28;20435;-88
2021/12/10 12:09:45;;;;;;;1.00;0.90;;;3.50;99.90;;;;;;5030238;28;20480;-89
2021/12/10 12:12:17;;;;;;;0.80;0.70;;;3.30;99.90;;;;;;5011450;28;20919;-90
2021/12/10 12:14:50;;;;;;;1.73;1.63;;;3.30;99.90;;;;;;5028370;28;20558;-90
2021/12/10 12:17:42;;;;;;;30.83;2.40;;;3.20;99.90;;;;;;5014537;28;20446;-91
2021/12/10 12:20:24;;;;;;;0.90;0.80;;;3.20;99.90;;;;;;5011986;28;20446;-91
2021/12/10 12:25:44;;;;;;;4.53;3.90;;;3.20;99.90;;;;;;5034710;28;20490;-89
2021/12/10 12:28:14;;;;;;;2.33;1.80;;;3.30;99.90;;;;;;5032593;28;20434;-89
2021/12/10 12:30:59;;;;;;;2.07;1.97;;;3.30;99.90;;;;;;5024334;28;20455;-91
2021/12/10 12:33:28;;;;;;;1.10;1.00;;;3.30;99.90;;;;;;5005011;28;20460;-90
2021/12/10 12:35:56;;;;;;;3.37;3.27;;;3.30;99.90;;;;;;5012242;28;20482;-91
2021/12/10 12:38:27;;;;;;;0.90;0.80;;;3.30;99.90;;;;;;5008522;28;20475;-90
2021/12/10 12:41:16;;;;;;;1.33;1.23;;;3.30;99.90;;;;;;5002980;28;20530;-90
2021/12/10 12:43:44;;;;;;;3.47;1.60;;;3.30;99.90;;;;;;5025932;28;20445;-90
2021/12/10 12:46:11;;;;;;;5.33;3.70;;;3.30;99.90;;;;;;5037975;28;20418;-89
2021/12/10 12:48:57;;;;;;;1.57;1.47;;;3.30;99.90;;;;;;5031064;28;20441;-90
2021/12/10 12:51:23;;;;;;;1.20;1.10;;;3.30;99.90;;;;;;5052687;28;20417;-91
2021/12/10 12:53:50;;;;;;;0.80;0.80;;;3.40;99.90;;;;;;5030275;28;20488;-90
2021/12/10 12:56:19;;;;;;;9.10;3.63;;;3.40;99.90;;;;;;5037981;28;20468;-89
2021/12/10 12:58:59;;;;;;;0.90;0.80;;;3.40;99.90;;;;;;5033821;28;20534;-90
2021/12/10 13:01:24;;;;;;;1.00;0.90;;;3.50;99.90;;;;;;5040205;28;20510;-90
2021/12/10 13:04:01;;;;;;;3.60;1.13;;;3.40;99.90;;;;;;5016361;28;20522;-90
2021/12/10 13:06:37;;;;;;;1.37;1.27;;;3.40;99.90;;;;;;5048121;28;20187;-90
2021/12/10 13:09:27;;;;;;;3.13;1.33;;;3.40;99.90;;;;;;5007149;28;20438;-90
2021/12/10 13:12:03;;;;;;;1.67;1.10;;;3.30;99.90;;;;;;5030078;28;20439;-90
2021/12/10 13:14:38;;;;;;;1.23;1.13;;;3.40;99.90;;;;;;5020807;28;20989;-90
2021/12/10 13:17:14;;;;;;;0.80;0.77;;;3.30;99.90;;;;;;5030510;28;20441;-93
2021/12/10 13:19:40;;;;;;;1.63;1.53;;;3.30;99.90;;;;;;5011613;28;20483;-90
2021/12/10 13:22:19;;;;;;;0.90;0.80;;;3.30;99.90;;;;;;5014364;28;20438;-90
2021/12/10 13:24:49;;;;;;;1.20;1.10;;;3.20;99.90;;;;;;5033732;28;20445;-90